sensor_id;sensor_type;location;lat;lon;timestamp;P1;durP1;ratioP1;P2;durP2;ratioP2
77362;SDS011;66428;47.322;9.432;2023-04-24T00:00:42;0.90;;;0.55;;
77362;SDS011;66428;47.322;9.432;2023-04-24T00:03:13;1.38;;;0.73;;
77362;SDS011;66428;47.322;9.432;2023-04-24T00:05:43;2.05;;;1.48;;
77362;SDS011;66428;47.322;9.432;2023-04-24T00:08:09;1.00;;;0.60;;
77362;SDS011;66428;47.322;9.432;2023-04-24T00:10:38;0.95;;;0.50;;
77362;SDS011;66428;47.322;9.432;2023-04-24T00:13:07;1.23;;;0.50;;
77362;SDS011;66428;47.322;9.432;2023-04-24T00:15:36;2.55;;;0.80;;
77362;SDS011;66428;47.322;9.432;2023-04-24T00:18:05;1.05;;;0.50;;
77362;SDS011;66428;47.322;9.432;2023-04-24T00:20:34;0.85;;;0.70;;
77362;SDS011;66428;47.322;9.432;2023-04-24T00:23:03;1.00;;;0.63;;
77362;SDS011;66428;47.322;9.432;2023-04-24T00:25:32;0.95;;;0.55;;
77362;SDS011;66428;47.322;9.432;2023-04-24T00:27:59;1.38;;;0.82;;
77362;SDS011;66428;47.322;9.432;2023-04-24T00:30:25;0.77;;;0.60;;
77362;SDS011;66428;47.322;9.432;2023-04-24T00:32:52;0.93;;;0.63;;
77362;SDS011;66428;47.322;9.432;2023-04-24T00:35:18;1.92;;;0.50;;
77362;SDS011;66428;47.322;9.432;2023-04-24T00:37:46;1.42;;;0.75;;
77362;SDS011;66428;47.322;9.432;2023-04-24T00:40:13;1.00;;;0.40;;
77362;SDS011;66428;47.322;9.432;2023-04-24T00:42:39;2.13;;;0.70;;
77362;SDS011;66428;47.322;9.432;2023-04-24T00:45:06;1.17;;;0.55;;
77362;SDS011;66428;47.322;9.432;2023-04-24T00:47:33;0.82;;;0.40;;
77362;SDS011;66428;47.322;9.432;2023-04-24T00:50:06;0.68;;;0.60;;
77362;SDS011;66428;47.322;9.432;2023-04-24T00:52:35;1.10;;;0.82;;
77362;SDS011;66428;47.322;9.432;2023-04-24T00:55:02;0.85;;;0.55;;
77362;SDS011;66428;47.322;9.432;2023-04-24T00:57:36;2.33;;;0.50;;
77362;SDS011;66428;47.322;9.432;2023-04-24T01:00:03;0.95;;;0.63;;
77362;SDS011;66428;47.322;9.432;2023-04-24T01:02:38;0.75;;;0.50;;
77362;SDS011;66428;47.322;9.432;2023-04-24T01:05:11;0.73;;;0.50;;
77362;SDS011;66428;47.322;9.432;2023-04-24T01:07:41;1.73;;;0.70;;
77362;SDS011;66428;47.322;9.432;2023-04-24T01:10:11;0.80;;;0.60;;
77362;SDS011;66428;47.322;9.432;2023-04-24T01:12:43;1.25;;;0.98;;
77362;SDS011;66428;47.322;9.432;2023-04-24T01:15:12;1.90;;;0.82;;
77362;SDS011;66428;47.322;9.432;2023-04-24T01:17:41;1.13;;;0.80;;
77362;SDS011;66428;47.322;9.432;2023-04-24T01:20:10;0.90;;;0.60;;
77362;SDS011;66428;47.322;9.432;2023-04-24T01:22:43;0.90;;;0.70;;
77362;SDS011;66428;47.322;9.432;2023-04-24T01:25:09;1.38;;;0.70;;
77362;SDS011;66428;47.322;9.432;2023-04-24T01:27:38;0.80;;;0.55;;
77362;SDS011;66428;47.322;9.432;2023-04-24T01:30:05;1.42;;;0.90;;
77362;SDS011;66428;47.322;9.432;2023-04-24T01:32:35;0.98;;;0.70;;
77362;SDS011;66428;47.322;9.432;2023-04-24T01:35:05;1.00;;;0.68;;
77362;SDS011;66428;47.322;9.432;2023-04-24T01:37:35;1.20;;;0.70;;
77362;SDS011;66428;47.322;9.432;2023-04-24T01:40:08;1.95;;;0.75;;
77362;SDS011;66428;47.322;9.432;2023-04-24T01:42:35;0.93;;;0.50;;
77362;SDS011;66428;47.322;9.432;2023-04-24T01:45:02;1.00;;;0.50;;
77362;SDS011;66428;47.322;9.432;2023-04-24T01:47:33;1.23;;;0.52;;
77362;SDS011;66428;47.322;9.432;2023-04-24T01:50:02;1.38;;;0.88;;
77362;SDS011;66428;47.322;9.432;2023-04-24T01:52:32;1.35;;;0.70;;
77362;SDS011;66428;47.322;9.432;2023-04-24T01:55:01;0.65;;;0.52;;
77362;SDS011;66428;47.322;9.432;2023-04-24T01:57:28;0.35;;;0.35;;
77362;SDS011;66428;47.322;9.432;2023-04-24T01:59:56;0.80;;;0.60;;
77362;SDS011;66428;47.322;9.432;2023-04-24T02:02:23;0.52;;;0.47;;
77362;SDS011;66428;47.322;9.432;2023-04-24T02:04:57;0.60;;;0.40;;
77362;SDS011;66428;47.322;9.432;2023-04-24T02:07:23;0.75;;;0.45;;
77362;SDS011;66428;47.322;9.432;2023-04-24T02:09:55;0.45;;;0.40;;
77362;SDS011;66428;47.322;9.432;2023-04-24T02:12:21;0.55;;;0.40;;
77362;SDS011;66428;47.322;9.432;2023-04-24T02:14:53;0.65;;;0.47;;
77362;SDS011;66428;47.322;9.432;2023-04-24T02:17:22;1.00;;;0.60;;
77362;SDS011;66428;47.322;9.432;2023-04-24T02:19:49;0.40;;;0.20;;
77362;SDS011;66428;47.322;9.432;2023-04-24T02:22:20;0.30;;;0.30;;
77362;SDS011;66428;47.322;9.432;2023-04-24T02:24:49;0.30;;;0.25;;
77362;SDS011;66428;47.322;9.432;2023-04-24T02:27:15;0.35;;;0.35;;
77362;SDS011;66428;47.322;9.432;2023-04-24T02:32:11;0.28;;;0.25;;
77362;SDS011;66428;47.322;9.432;2023-04-24T02:34:41;0.80;;;0.70;;
77362;SDS011;66428;47.322;9.432;2023-04-24T02:37:07;0.43;;;0.40;;
77362;SDS011;66428;47.322;9.432;2023-04-24T02:39:39;0.32;;;0.30;;
77362;SDS011;66428;47.322;9.432;2023-04-24T02:42:08;0.30;;;0.22;;
77362;SDS011;66428;47.322;9.432;2023-04-24T02:44:36;0.30;;;0.30;;
77362;SDS011;66428;47.322;9.432;2023-04-24T02:47:07;0.75;;;0.50;;
77362;SDS011;66428;47.322;9.432;2023-04-24T02:49:35;1.00;;;0.40;;
77362;SDS011;66428;47.322;9.432;2023-04-24T02:52:01;0.60;;;0.43;;
77362;SDS011;66428;47.322;9.432;2023-04-24T02:54:28;0.65;;;0.40;;
77362;SDS011;66428;47.322;9.432;2023-04-24T02:56:57;1.58;;;0.43;;
77362;SDS011;66428;47.322;9.432;2023-04-24T02:59:24;0.50;;;0.50;;
77362;SDS011;66428;47.322;9.432;2023-04-24T03:01:53;0.77;;;0.40;;
77362;SDS011;66428;47.322;9.432;2023-04-24T03:04:19;0.63;;;0.40;;
77362;SDS011;66428;47.322;9.432;2023-04-24T03:06:52;0.98;;;0.57;;
77362;SDS011;66428;47.322;9.432;2023-04-24T03:09:23;1.00;;;0.50;;
77362;SDS011;66428;47.322;9.432;2023-04-24T03:11:52;0.45;;;0.30;;
77362;SDS011;66428;47.322;9.432;2023-04-24T03:14:18;0.38;;;0.30;;
77362;SDS011;66428;47.322;9.432;2023-04-24T03:16:45;0.55;;;0.50;;
77362;SDS011;66428;47.322;9.432;2023-04-24T03:19:12;0.52;;;0.30;;
77362;SDS011;66428;47.322;9.432;2023-04-24T03:21:53;0.40;;;0.30;;
77362;SDS011;66428;47.322;9.432;2023-04-24T03:24:22;0.30;;;0.30;;
77362;SDS011;66428;47.322;9.432;2023-04-24T03:26:57;0.30;;;0.30;;
77362;SDS011;66428;47.322;9.432;2023-04-24T03:29:47;0.30;;;0.30;;
77362;SDS011;66428;47.322;9.432;2023-04-24T03:32:16;0.50;;;0.35;;
77362;SDS011;66428;47.322;9.432;2023-04-24T03:34:42;0.50;;;0.32;;
77362;SDS011;66428;47.322;9.432;2023-04-24T03:37:12;0.30;;;0.25;;
77362;SDS011;66428;47.322;9.432;2023-04-24T03:39:46;0.50;;;0.40;;
77362;SDS011;66428;47.322;9.432;2023-04-24T03:42:15;0.30;;;0.30;;
77362;SDS011;66428;47.322;9.432;2023-04-24T03:44:49;0.30;;;0.30;;
77362;SDS011;66428;47.322;9.432;2023-04-24T03:47:20;0.68;;;0.50;;
77362;SDS011;66428;47.322;9.432;2023-04-24T03:49:50;1.45;;;0.40;;
77362;SDS011;66428;47.322;9.432;2023-04-24T03:52:21;0.32;;;0.32;;
77362;SDS011;66428;47.322;9.432;2023-04-24T03:54:50;2.08;;;1.15;;
77362;SDS011;66428;47.322;9.432;2023-04-24T03:57:17;3.20;;;1.50;;
77362;SDS011;66428;47.322;9.432;2023-04-24T03:59:56;2.67;;;1.30;;
77362;SDS011;66428;47.322;9.432;2023-04-24T04:02:24;2.50;;;1.30;;
77362;SDS011;66428;47.322;9.432;2023-04-24T04:04:53;1.15;;;0.70;;
77362;SDS011;66428;47.322;9.432;2023-04-24T04:07:20;0.52;;;0.38;;
77362;SDS011;66428;47.322;9.432;2023-04-24T04:09:49;1.10;;;0.70;;
77362;SDS011;66428;47.322;9.432;2023-04-24T04:12:16;0.68;;;0.43;;
77362;SDS011;66428;47.322;9.432;2023-04-24T04:17:11;0.55;;;0.45;;
77362;SDS011;66428;47.322;9.432;2023-04-24T04:19:44;0.73;;;0.43;;
77362;SDS011;66428;47.322;9.432;2023-04-24T04:22:11;1.25;;;0.65;;
77362;SDS011;66428;47.322;9.432;2023-04-24T04:24:42;0.98;;;0.70;;
77362;SDS011;66428;47.322;9.432;2023-04-24T04:27:12;1.80;;;0.80;;
77362;SDS011;66428;47.322;9.432;2023-04-24T04:30:02;1.10;;;0.68;;
77362;SDS011;66428;47.322;9.432;2023-04-24T04:32:38;2.05;;;0.80;;
77362;SDS011;66428;47.322;9.432;2023-04-24T04:35:04;2.75;;;0.90;;
77362;SDS011;66428;47.322;9.432;2023-04-24T04:37:34;1.23;;;0.70;;
77362;SDS011;66428;47.322;9.432;2023-04-24T04:40:08;0.68;;;0.50;;
77362;SDS011;66428;47.322;9.432;2023-04-24T04:42:47;0.65;;;0.50;;
77362;SDS011;66428;47.322;9.432;2023-04-24T04:45:14;0.52;;;0.47;;
77362;SDS011;66428;47.322;9.432;2023-04-24T04:48:06;1.30;;;0.50;;
77362;SDS011;66428;47.322;9.432;2023-04-24T04:50:38;1.00;;;0.55;;
77362;SDS011;66428;47.322;9.432;2023-04-24T04:53:06;1.27;;;0.65;;
77362;SDS011;66428;47.322;9.432;2023-04-24T04:55:36;0.95;;;0.63;;
77362;SDS011;66428;47.322;9.432;2023-04-24T04:58:15;0.50;;;0.40;;
77362;SDS011;66428;47.322;9.432;2023-04-24T05:00:46;1.35;;;0.38;;
77362;SDS011;66428;47.322;9.432;2023-04-24T05:06:06;0.30;;;0.30;;
77362;SDS011;66428;47.322;9.432;2023-04-24T05:08:35;0.30;;;0.30;;
77362;SDS011;66428;47.322;9.432;2023-04-24T05:11:07;0.40;;;0.32;;
77362;SDS011;66428;47.322;9.432;2023-04-24T05:13:40;0.40;;;0.35;;
77362;SDS011;66428;47.322;9.432;2023-04-24T05:16:15;0.90;;;0.63;;
77362;SDS011;66428;47.322;9.432;2023-04-24T05:18:44;1.35;;;0.50;;
77362;SDS011;66428;47.322;9.432;2023-04-24T05:21:13;1.05;;;0.30;;
77362;SDS011;66428;47.322;9.432;2023-04-24T05:23:47;0.68;;;0.47;;
77362;SDS011;66428;47.322;9.432;2023-04-24T05:26:25;0.38;;;0.30;;
77362;SDS011;66428;47.322;9.432;2023-04-24T05:28:56;0.95;;;0.65;;
77362;SDS011;66428;47.322;9.432;2023-04-24T05:31:23;0.60;;;0.40;;
77362;SDS011;66428;47.322;9.432;2023-04-24T05:33:49;0.65;;;0.32;;
77362;SDS011;66428;47.322;9.432;2023-04-24T05:36:18;1.13;;;0.50;;
77362;SDS011;66428;47.322;9.432;2023-04-24T05:38:47;0.93;;;0.77;;
77362;SDS011;66428;47.322;9.432;2023-04-24T05:41:16;1.85;;;0.70;;
77362;SDS011;66428;47.322;9.432;2023-04-24T05:43:45;0.82;;;0.60;;
77362;SDS011;66428;47.322;9.432;2023-04-24T05:46:16;0.95;;;0.50;;
77362;SDS011;66428;47.322;9.432;2023-04-24T05:48:43;0.85;;;0.60;;
77362;SDS011;66428;47.322;9.432;2023-04-24T05:51:10;0.93;;;0.50;;
77362;SDS011;66428;47.322;9.432;2023-04-24T05:53:39;0.47;;;0.43;;
77362;SDS011;66428;47.322;9.432;2023-04-24T05:56:08;0.65;;;0.57;;
77362;SDS011;66428;47.322;9.432;2023-04-24T05:58:37;1.33;;;0.65;;
77362;SDS011;66428;47.322;9.432;2023-04-24T06:01:09;0.45;;;0.43;;
77362;SDS011;66428;47.322;9.432;2023-04-24T06:03:37;0.80;;;0.57;;
77362;SDS011;66428;47.322;9.432;2023-04-24T06:06:10;0.35;;;0.35;;
77362;SDS011;66428;47.322;9.432;2023-04-24T06:08:41;0.60;;;0.45;;
77362;SDS011;66428;47.322;9.432;2023-04-24T06:11:09;0.55;;;0.50;;
77362;SDS011;66428;47.322;9.432;2023-04-24T06:13:38;0.65;;;0.40;;
77362;SDS011;66428;47.322;9.432;2023-04-24T06:16:23;2.60;;;0.85;;
77362;SDS011;66428;47.322;9.432;2023-04-24T06:18:59;1.40;;;0.77;;
77362;SDS011;66428;47.322;9.432;2023-04-24T06:21:29;0.40;;;0.40;;
77362;SDS011;66428;47.322;9.432;2023-04-24T06:23:56;0.63;;;0.50;;
77362;SDS011;66428;47.322;9.432;2023-04-24T06:26:23;1.58;;;0.90;;
77362;SDS011;66428;47.322;9.432;2023-04-24T06:28:55;1.20;;;0.60;;
77362;SDS011;66428;47.322;9.432;2023-04-24T06:31:21;0.73;;;0.60;;
77362;SDS011;66428;47.322;9.432;2023-04-24T06:33:48;0.30;;;0.25;;
77362;SDS011;66428;47.322;9.432;2023-04-24T06:36:15;0.45;;;0.30;;
77362;SDS011;66428;47.322;9.432;2023-04-24T06:38:44;0.85;;;0.50;;
77362;SDS011;66428;47.322;9.432;2023-04-24T06:41:13;0.32;;;0.22;;
77362;SDS011;66428;47.322;9.432;2023-04-24T06:43:44;0.98;;;0.50;;
77362;SDS011;66428;47.322;9.432;2023-04-24T06:46:13;0.73;;;0.50;;
77362;SDS011;66428;47.322;9.432;2023-04-24T06:48:41;0.30;;;0.30;;
77362;SDS011;66428;47.322;9.432;2023-04-24T06:53:37;0.63;;;0.38;;
77362;SDS011;66428;47.322;9.432;2023-04-24T06:56:08;0.82;;;0.50;;
77362;SDS011;66428;47.322;9.432;2023-04-24T06:58:37;0.57;;;0.40;;
77362;SDS011;66428;47.322;9.432;2023-04-24T07:01:04;0.80;;;0.50;;
77362;SDS011;66428;47.322;9.432;2023-04-24T07:03:33;1.05;;;0.60;;
77362;SDS011;66428;47.322;9.432;2023-04-24T07:06:00;1.13;;;0.77;;
77362;SDS011;66428;47.322;9.432;2023-04-24T07:08:29;1.00;;;0.70;;
77362;SDS011;66428;47.322;9.432;2023-04-24T07:10:59;1.33;;;0.73;;
77362;SDS011;66428;47.322;9.432;2023-04-24T07:13:26;1.63;;;0.90;;
77362;SDS011;66428;47.322;9.432;2023-04-24T07:15:55;1.10;;;0.77;;
77362;SDS011;66428;47.322;9.432;2023-04-24T07:18:22;1.80;;;1.02;;
77362;SDS011;66428;47.322;9.432;2023-04-24T07:20:51;2.00;;;1.23;;
77362;SDS011;66428;47.322;9.432;2023-04-24T07:23:22;1.48;;;1.00;;
77362;SDS011;66428;47.322;9.432;2023-04-24T07:25:49;2.47;;;1.38;;
77362;SDS011;66428;47.322;9.432;2023-04-24T07:28:20;1.58;;;1.08;;
77362;SDS011;66428;47.322;9.432;2023-04-24T07:30:47;2.05;;;1.30;;
77362;SDS011;66428;47.322;9.432;2023-04-24T07:33:15;4.88;;;2.30;;
77362;SDS011;66428;47.322;9.432;2023-04-24T07:35:44;2.97;;;1.58;;
77362;SDS011;66428;47.322;9.432;2023-04-24T07:40:37;2.80;;;1.40;;
77362;SDS011;66428;47.322;9.432;2023-04-24T07:43:08;3.10;;;1.48;;
77362;SDS011;66428;47.322;9.432;2023-04-24T07:45:39;2.55;;;1.10;;
77362;SDS011;66428;47.322;9.432;2023-04-24T07:48:09;1.80;;;1.05;;
77362;SDS011;66428;47.322;9.432;2023-04-24T07:50:40;2.70;;;1.20;;
77362;SDS011;66428;47.322;9.432;2023-04-24T07:55:37;1.60;;;0.90;;
77362;SDS011;66428;47.322;9.432;2023-04-24T07:58:04;3.72;;;1.35;;
77362;SDS011;66428;47.322;9.432;2023-04-24T08:00:33;3.00;;;1.23;;
77362;SDS011;66428;47.322;9.432;2023-04-24T08:03:00;2.50;;;1.10;;
77362;SDS011;66428;47.322;9.432;2023-04-24T08:05:27;4.05;;;1.48;;
77362;SDS011;66428;47.322;9.432;2023-04-24T08:07:56;3.17;;;1.45;;
77362;SDS011;66428;47.322;9.432;2023-04-24T08:10:22;3.63;;;1.25;;
77362;SDS011;66428;47.322;9.432;2023-04-24T08:12:53;8.48;;;3.25;;
77362;SDS011;66428;47.322;9.432;2023-04-24T08:15:21;2.10;;;1.38;;
77362;SDS011;66428;47.322;9.432;2023-04-24T08:20:16;1.95;;;1.48;;
77362;SDS011;66428;47.322;9.432;2023-04-24T08:25:13;3.45;;;1.27;;
77362;SDS011;66428;47.322;9.432;2023-04-24T08:27:42;2.75;;;1.20;;
77362;SDS011;66428;47.322;9.432;2023-04-24T08:30:11;4.68;;;1.27;;
77362;SDS011;66428;47.322;9.432;2023-04-24T08:32:38;2.60;;;1.52;;
77362;SDS011;66428;47.322;9.432;2023-04-24T08:35:05;5.25;;;2.15;;
77362;SDS011;66428;47.322;9.432;2023-04-24T08:37:34;3.40;;;1.10;;
77362;SDS011;66428;47.322;9.432;2023-04-24T08:40:00;1.67;;;1.20;;
77362;SDS011;66428;47.322;9.432;2023-04-24T08:42:28;1.73;;;0.80;;
77362;SDS011;66428;47.322;9.432;2023-04-24T08:44:56;1.02;;;0.63;;
77362;SDS011;66428;47.322;9.432;2023-04-24T08:47:30;2.00;;;0.60;;
77362;SDS011;66428;47.322;9.432;2023-04-24T08:50:00;1.20;;;0.80;;
77362;SDS011;66428;47.322;9.432;2023-04-24T08:52:39;1.85;;;0.80;;
77362;SDS011;66428;47.322;9.432;2023-04-24T08:55:17;1.70;;;1.00;;
77362;SDS011;66428;47.322;9.432;2023-04-24T08:57:50;1.27;;;0.80;;
77362;SDS011;66428;47.322;9.432;2023-04-24T09:00:18;1.30;;;0.80;;
77362;SDS011;66428;47.322;9.432;2023-04-24T09:02:48;1.95;;;1.15;;
77362;SDS011;66428;47.322;9.432;2023-04-24T09:05:20;1.30;;;0.80;;
77362;SDS011;66428;47.322;9.432;2023-04-24T09:07:52;3.33;;;1.20;;
77362;SDS011;66428;47.322;9.432;2023-04-24T09:10:23;2.47;;;1.00;;
77362;SDS011;66428;47.322;9.432;2023-04-24T09:12:52;3.00;;;1.13;;
77362;SDS011;66428;47.322;9.432;2023-04-24T09:15:20;2.13;;;1.10;;
77362;SDS011;66428;47.322;9.432;2023-04-24T09:17:47;2.38;;;1.27;;
77362;SDS011;66428;47.322;9.432;2023-04-24T09:20:13;1.50;;;0.90;;
77362;SDS011;66428;47.322;9.432;2023-04-24T09:22:45;3.17;;;1.65;;
77362;SDS011;66428;47.322;9.432;2023-04-24T09:25:11;3.25;;;1.45;;
77362;SDS011;66428;47.322;9.432;2023-04-24T09:27:41;3.25;;;1.20;;
77362;SDS011;66428;47.322;9.432;2023-04-24T09:30:09;2.83;;;1.25;;
77362;SDS011;66428;47.322;9.432;2023-04-24T09:32:37;2.63;;;1.38;;
77362;SDS011;66428;47.322;9.432;2023-04-24T09:35:05;1.73;;;1.00;;
77362;SDS011;66428;47.322;9.432;2023-04-24T09:37:45;3.78;;;1.27;;
77362;SDS011;66428;47.322;9.432;2023-04-24T09:42:54;1.85;;;1.20;;
77362;SDS011;66428;47.322;9.432;2023-04-24T09:45:24;1.90;;;1.33;;
77362;SDS011;66428;47.322;9.432;2023-04-24T09:47:56;2.13;;;1.30;;
77362;SDS011;66428;47.322;9.432;2023-04-24T09:50:30;3.03;;;1.40;;
77362;SDS011;66428;47.322;9.432;2023-04-24T09:53:04;2.70;;;1.48;;
77362;SDS011;66428;47.322;9.432;2023-04-24T09:55:31;4.25;;;2.50;;
77362;SDS011;66428;47.322;9.432;2023-04-24T10:00:31;2.33;;;1.50;;
77362;SDS011;66428;47.322;9.432;2023-04-24T10:03:01;2.30;;;1.55;;
77362;SDS011;66428;47.322;9.432;2023-04-24T10:10:30;2.33;;;1.70;;
77362;SDS011;66428;47.322;9.432;2023-04-24T10:13:01;2.80;;;1.83;;
77362;SDS011;66428;47.322;9.432;2023-04-24T10:15:31;4.00;;;2.08;;
77362;SDS011;66428;47.322;9.432;2023-04-24T10:18:00;3.17;;;1.67;;
77362;SDS011;66428;47.322;9.432;2023-04-24T10:20:29;3.33;;;1.95;;
77362;SDS011;66428;47.322;9.432;2023-04-24T10:22:59;2.90;;;1.92;;
77362;SDS011;66428;47.322;9.432;2023-04-24T10:25:29;2.30;;;1.58;;
77362;SDS011;66428;47.322;9.432;2023-04-24T10:27:56;3.35;;;1.80;;
77362;SDS011;66428;47.322;9.432;2023-04-24T10:30:32;2.45;;;1.63;;
77362;SDS011;66428;47.322;9.432;2023-04-24T10:33:05;2.95;;;1.70;;
77362;SDS011;66428;47.322;9.432;2023-04-24T10:35:39;3.33;;;2.45;;
77362;SDS011;66428;47.322;9.432;2023-04-24T10:38:08;3.60;;;1.80;;
77362;SDS011;66428;47.322;9.432;2023-04-24T10:40:35;3.47;;;1.80;;
77362;SDS011;66428;47.322;9.432;2023-04-24T10:43:05;3.05;;;1.80;;
77362;SDS011;66428;47.322;9.432;2023-04-24T10:45:38;4.25;;;1.90;;
77362;SDS011;66428;47.322;9.432;2023-04-24T10:48:09;4.22;;;1.77;;
77362;SDS011;66428;47.322;9.432;2023-04-24T10:53:17;3.10;;;1.98;;
77362;SDS011;66428;47.322;9.432;2023-04-24T10:58:11;3.15;;;2.03;;
77362;SDS011;66428;47.322;9.432;2023-04-24T11:00:38;2.63;;;1.98;;
77362;SDS011;66428;47.322;9.432;2023-04-24T11:03:22;4.20;;;2.05;;
77362;SDS011;66428;47.322;9.432;2023-04-24T11:14:01;2.30;;;1.60;;
77362;SDS011;66428;47.322;9.432;2023-04-24T11:19:00;2.80;;;1.80;;
77362;SDS011;66428;47.322;9.432;2023-04-24T11:24:21;3.08;;;2.00;;
77362;SDS011;66428;47.322;9.432;2023-04-24T11:26:53;2.72;;;1.67;;
77362;SDS011;66428;47.322;9.432;2023-04-24T11:29:20;2.20;;;1.42;;
77362;SDS011;66428;47.322;9.432;2023-04-24T11:31:49;2.78;;;1.77;;
77362;SDS011;66428;47.322;9.432;2023-04-24T11:34:26;3.13;;;1.65;;
77362;SDS011;66428;47.322;9.432;2023-04-24T11:36:52;3.10;;;2.00;;
77362;SDS011;66428;47.322;9.432;2023-04-24T11:39:27;2.90;;;1.73;;
77362;SDS011;66428;47.322;9.432;2023-04-24T11:44:20;3.75;;;1.92;;
77362;SDS011;66428;47.322;9.432;2023-04-24T11:46:48;2.72;;;1.60;;
77362;SDS011;66428;47.322;9.432;2023-04-24T11:49:17;3.47;;;2.05;;
77362;SDS011;66428;47.322;9.432;2023-04-24T11:51:44;2.83;;;1.40;;
77362;SDS011;66428;47.322;9.432;2023-04-24T11:54:21;2.70;;;1.63;;
77362;SDS011;66428;47.322;9.432;2023-04-24T11:56:56;3.22;;;1.50;;
77362;SDS011;66428;47.322;9.432;2023-04-24T11:59:30;2.92;;;1.88;;
77362;SDS011;66428;47.322;9.432;2023-04-24T12:02:06;2.20;;;1.48;;
77362;SDS011;66428;47.322;9.432;2023-04-24T12:04:40;2.30;;;1.50;;
77362;SDS011;66428;47.322;9.432;2023-04-24T12:07:08;2.53;;;1.30;;
77362;SDS011;66428;47.322;9.432;2023-04-24T12:12:08;4.15;;;1.80;;
77362;SDS011;66428;47.322;9.432;2023-04-24T12:14:50;3.80;;;1.70;;
77362;SDS011;66428;47.322;9.432;2023-04-24T12:17:23;2.30;;;1.60;;
77362;SDS011;66428;47.322;9.432;2023-04-24T12:19:56;2.83;;;2.00;;
77362;SDS011;66428;47.322;9.432;2023-04-24T12:22:25;4.03;;;2.55;;
77362;SDS011;66428;47.322;9.432;2023-04-24T12:24:55;2.63;;;1.88;;
77362;SDS011;66428;47.322;9.432;2023-04-24T12:27:23;4.43;;;2.33;;
77362;SDS011;66428;47.322;9.432;2023-04-24T12:29:52;2.95;;;1.88;;
77362;SDS011;66428;47.322;9.432;2023-04-24T12:32:22;3.40;;;2.22;;
77362;SDS011;66428;47.322;9.432;2023-04-24T12:34:51;2.53;;;1.67;;
77362;SDS011;66428;47.322;9.432;2023-04-24T12:37:18;4.03;;;1.70;;
77362;SDS011;66428;47.322;9.432;2023-04-24T12:40:09;3.35;;;1.40;;
77362;SDS011;66428;47.322;9.432;2023-04-24T12:42:41;4.10;;;1.50;;
77362;SDS011;66428;47.322;9.432;2023-04-24T12:45:11;2.83;;;1.45;;
77362;SDS011;66428;47.322;9.432;2023-04-24T12:47:41;3.47;;;1.58;;
77362;SDS011;66428;47.322;9.432;2023-04-24T12:50:08;3.22;;;1.88;;
77362;SDS011;66428;47.322;9.432;2023-04-24T12:52:38;2.35;;;1.73;;
77362;SDS011;66428;47.322;9.432;2023-04-24T12:55:07;3.47;;;1.67;;
77362;SDS011;66428;47.322;9.432;2023-04-24T12:57:36;2.88;;;1.80;;
77362;SDS011;66428;47.322;9.432;2023-04-24T13:00:04;2.53;;;1.52;;
77362;SDS011;66428;47.322;9.432;2023-04-24T13:02:33;3.70;;;1.73;;
77362;SDS011;66428;47.322;9.432;2023-04-24T13:05:03;3.42;;;2.08;;
77362;SDS011;66428;47.322;9.432;2023-04-24T13:07:32;3.03;;;1.92;;
77362;SDS011;66428;47.322;9.432;2023-04-24T13:10:06;4.38;;;2.25;;
77362;SDS011;66428;47.322;9.432;2023-04-24T13:12:35;3.28;;;1.67;;
77362;SDS011;66428;47.322;9.432;2023-04-24T13:15:07;2.85;;;1.65;;
77362;SDS011;66428;47.322;9.432;2023-04-24T13:17:35;2.60;;;1.52;;
77362;SDS011;66428;47.322;9.432;2023-04-24T13:20:02;2.55;;;1.58;;
77362;SDS011;66428;47.322;9.432;2023-04-24T13:22:31;2.80;;;1.67;;
77362;SDS011;66428;47.322;9.432;2023-04-24T13:24:58;2.85;;;1.60;;
77362;SDS011;66428;47.322;9.432;2023-04-24T13:27:24;2.15;;;1.60;;
77362;SDS011;66428;47.322;9.432;2023-04-24T13:29:54;2.33;;;1.90;;
77362;SDS011;66428;47.322;9.432;2023-04-24T13:32:20;4.53;;;2.10;;
77362;SDS011;66428;47.322;9.432;2023-04-24T13:34:49;4.43;;;2.10;;
77362;SDS011;66428;47.322;9.432;2023-04-24T13:37:18;3.40;;;2.00;;
77362;SDS011;66428;47.322;9.432;2023-04-24T13:39:46;2.65;;;1.85;;
77362;SDS011;66428;47.322;9.432;2023-04-24T13:42:13;2.50;;;1.80;;
77362;SDS011;66428;47.322;9.432;2023-04-24T13:44:44;3.42;;;2.50;;
77362;SDS011;66428;47.322;9.432;2023-04-24T13:47:13;2.35;;;1.52;;
77362;SDS011;66428;47.322;9.432;2023-04-24T13:49:44;2.45;;;1.80;;
77362;SDS011;66428;47.322;9.432;2023-04-24T13:52:13;2.45;;;1.52;;
77362;SDS011;66428;47.322;9.432;2023-04-24T13:54:42;2.28;;;1.60;;
77362;SDS011;66428;47.322;9.432;2023-04-24T13:57:09;2.15;;;1.38;;
77362;SDS011;66428;47.322;9.432;2023-04-24T13:59:36;1.80;;;1.38;;
77362;SDS011;66428;47.322;9.432;2023-04-24T14:02:07;2.75;;;1.38;;
77362;SDS011;66428;47.322;9.432;2023-04-24T14:04:38;2.15;;;1.30;;
77362;SDS011;66428;47.322;9.432;2023-04-24T14:07:05;2.10;;;1.58;;
77362;SDS011;66428;47.322;9.432;2023-04-24T14:09:34;2.72;;;1.60;;
77362;SDS011;66428;47.322;9.432;2023-04-24T14:12:06;2.33;;;1.40;;
77362;SDS011;66428;47.322;9.432;2023-04-24T14:14:33;4.00;;;1.52;;
77362;SDS011;66428;47.322;9.432;2023-04-24T14:16:59;2.83;;;1.70;;
77362;SDS011;66428;47.322;9.432;2023-04-24T14:19:26;6.22;;;3.92;;
77362;SDS011;66428;47.322;9.432;2023-04-24T14:21:53;10.15;;;5.28;;
77362;SDS011;66428;47.322;9.432;2023-04-24T14:24:23;4.72;;;2.97;;
77362;SDS011;66428;47.322;9.432;2023-04-24T14:26:49;4.53;;;2.30;;
77362;SDS011;66428;47.322;9.432;2023-04-24T14:29:18;4.63;;;2.22;;
77362;SDS011;66428;47.322;9.432;2023-04-24T14:31:47;2.47;;;1.75;;
77362;SDS011;66428;47.322;9.432;2023-04-24T14:34:16;4.50;;;2.30;;
77362;SDS011;66428;47.322;9.432;2023-04-24T14:36:49;4.15;;;2.40;;
77362;SDS011;66428;47.322;9.432;2023-04-24T14:39:15;4.72;;;2.83;;
77362;SDS011;66428;47.322;9.432;2023-04-24T14:41:42;12.77;;;7.00;;
77362;SDS011;66428;47.322;9.432;2023-04-24T14:44:10;5.38;;;3.72;;
77362;SDS011;66428;47.322;9.432;2023-04-24T14:46:37;3.10;;;2.13;;
77362;SDS011;66428;47.322;9.432;2023-04-24T14:49:06;3.50;;;2.40;;
77362;SDS011;66428;47.322;9.432;2023-04-24T14:51:36;3.78;;;2.53;;
77362;SDS011;66428;47.322;9.432;2023-04-24T14:54:02;3.17;;;1.80;;
77362;SDS011;66428;47.322;9.432;2023-04-24T14:56:29;3.47;;;2.40;;
77362;SDS011;66428;47.322;9.432;2023-04-24T14:59:00;4.13;;;1.95;;
77362;SDS011;66428;47.322;9.432;2023-04-24T15:01:31;2.70;;;1.80;;
77362;SDS011;66428;47.322;9.432;2023-04-24T15:04:03;2.50;;;1.67;;
77362;SDS011;66428;47.322;9.432;2023-04-24T15:06:35;3.13;;;1.90;;
77362;SDS011;66428;47.322;9.432;2023-04-24T15:09:04;3.15;;;2.25;;
77362;SDS011;66428;47.322;9.432;2023-04-24T15:11:30;3.72;;;2.40;;
77362;SDS011;66428;47.322;9.432;2023-04-24T15:14:03;2.75;;;2.40;;
77362;SDS011;66428;47.322;9.432;2023-04-24T15:16:32;2.92;;;1.80;;
77362;SDS011;66428;47.322;9.432;2023-04-24T15:18:59;3.40;;;2.10;;
77362;SDS011;66428;47.322;9.432;2023-04-24T15:21:28;2.97;;;2.00;;
77362;SDS011;66428;47.322;9.432;2023-04-24T15:23:59;4.68;;;2.70;;
77362;SDS011;66428;47.322;9.432;2023-04-24T15:26:26;5.47;;;2.00;;
77362;SDS011;66428;47.322;9.432;2023-04-24T15:28:53;4.88;;;2.15;;
77362;SDS011;66428;47.322;9.432;2023-04-24T15:31:21;5.38;;;2.38;;
77362;SDS011;66428;47.322;9.432;2023-04-24T15:33:49;3.40;;;1.95;;
77362;SDS011;66428;47.322;9.432;2023-04-24T15:36:18;3.42;;;2.10;;
77362;SDS011;66428;47.322;9.432;2023-04-24T15:38:50;1.90;;;1.30;;
77362;SDS011;66428;47.322;9.432;2023-04-24T15:41:17;2.97;;;1.45;;
77362;SDS011;66428;47.322;9.432;2023-04-24T15:43:43;3.42;;;1.67;;
77362;SDS011;66428;47.322;9.432;2023-04-24T15:46:12;2.53;;;1.40;;
77362;SDS011;66428;47.322;9.432;2023-04-24T15:48:42;3.08;;;1.65;;
77362;SDS011;66428;47.322;9.432;2023-04-24T15:51:08;2.45;;;1.38;;
77362;SDS011;66428;47.322;9.432;2023-04-24T15:53:37;4.15;;;1.55;;
77362;SDS011;66428;47.322;9.432;2023-04-24T15:56:06;5.22;;;1.50;;